sensor_id;sensor_type;location;lat;lon;timestamp;temperature;humidity
13203;DHT22;6666;51.626;7.530;2022-10-03T00:04:07;8.90;99.90
13203;DHT22;6666;51.626;7.530;2022-10-03T00:06:43;8.90;99.90
13203;DHT22;6666;51.626;7.530;2022-10-03T00:09:38;9.00;99.90
13203;DHT22;6666;51.626;7.530;2022-10-03T00:12:16;8.80;99.90
13203;DHT22;6666;51.626;7.530;2022-10-03T00:14:55;8.80;99.90
13203;DHT22;6666;51.626;7.530;2022-10-03T00:17:37;8.80;99.90
13203;DHT22;6666;51.626;7.530;2022-10-03T00:20:27;8.80;99.90
13203;DHT22;6666;51.626;7.530;2022-10-03T00:23:02;8.80;99.90
13203;DHT22;6666;51.626;7.530;2022-10-03T00:25:39;8.80;99.90
13203;DHT22;6666;51.626;7.530;2022-10-03T00:28:20;8.80;99.90
13203;DHT22;6666;51.626;7.530;2022-10-03T00:31:07;8.80;99.90
13203;DHT22;6666;51.626;7.530;2022-10-03T00:33:48;8.80;99.90
13203;DHT22;6666;51.626;7.530;2022-10-03T00:36:28;8.70;99.90
13203;DHT22;6666;51.626;7.530;2022-10-03T00:39:06;8.80;99.90
13203;DHT22;6666;51.626;7.530;2022-10-03T00:42:00;8.70;99.90
13203;DHT22;6666;51.626;7.530;2022-10-03T00:47:57;8.70;99.90
13203;DHT22;6666;51.626;7.530;2022-10-03T00:53:46;8.70;99.90
13203;DHT22;6666;51.626;7.530;2022-10-03T00:56:53;8.70;99.90
13203;DHT22;6666;51.626;7.530;2022-10-03T00:59:32;8.60;99.90
13203;DHT22;6666;51.626;7.530;2022-10-03T01:02:23;8.70;99.90
13203;DHT22;6666;51.626;7.530;2022-10-03T01:05:02;8.70;99.90
13203;DHT22;6666;51.626;7.530;2022-10-03T01:07:57;8.60;99.90
13203;DHT22;6666;51.626;7.530;2022-10-03T01:10:36;8.50;99.90
13203;DHT22;6666;51.626;7.530;2022-10-03T01:13:24;8.50;99.90
13203;DHT22;6666;51.626;7.530;2022-10-03T01:15:58;8.50;99.90
13203;DHT22;6666;51.626;7.530;2022-10-03T01:18:38;8.50;99.90
13203;DHT22;6666;51.626;7.530;2022-10-03T01:21:15;8.40;99.90
13203;DHT22;6666;51.626;7.530;2022-10-03T01:24:20;8.40;99.90
13203;DHT22;6666;51.626;7.530;2022-10-03T01:26:57;8.50;99.90
13203;DHT22;6666;51.626;7.530;2022-10-03T01:29:38;8.40;99.90
13203;DHT22;6666;51.626;7.530;2022-10-03T01:32:30;8.40;99.90
13203;DHT22;6666;51.626;7.530;2022-10-03T01:35:09;8.40;99.90
13203;DHT22;6666;51.626;7.530;2022-10-03T01:37:46;8.40;99.90
13203;DHT22;6666;51.626;7.530;2022-10-03T01:40:22;8.30;99.90
13203;DHT22;6666;51.626;7.530;2022-10-03T01:43:00;8.30;99.90
13203;DHT22;6666;51.626;7.530;2022-10-03T01:45:41;8.30;99.90
13203;DHT22;6666;51.626;7.530;2022-10-03T01:48:18;8.40;99.90
13203;DHT22;6666;51.626;7.530;2022-10-03T01:50:57;8.40;99.90
13203;DHT22;6666;51.626;7.530;2022-10-03T01:53:34;8.40;99.90
13203;DHT22;6666;51.626;7.530;2022-10-03T01:56:11;8.30;99.90
13203;DHT22;6666;51.626;7.530;2022-10-03T01:58:48;8.40;99.90
13203;DHT22;6666;51.626;7.530;2022-10-03T02:01:30;8.40;99.90
13203;DHT22;6666;51.626;7.530;2022-10-03T02:04:09;8.40;99.90
13203;DHT22;6666;51.626;7.530;2022-10-03T02:06:46;8.40;99.90
13203;DHT22;6666;51.626;7.530;2022-10-03T02:09:26;8.30;99.90
13203;DHT22;6666;51.626;7.530;2022-10-03T02:12:06;8.30;99.90
13203;DHT22;6666;51.626;7.530;2022-10-03T02:14:46;8.30;99.90
13203;DHT22;6666;51.626;7.530;2022-10-03T02:17:26;8.30;99.90
13203;DHT22;6666;51.626;7.530;2022-10-03T02:20:02;8.30;99.90
13203;DHT22;6666;51.626;7.530;2022-10-03T02:22:34;8.20;99.90
13203;DHT22;6666;51.626;7.530;2022-10-03T02:25:22;8.20;99.90
13203;DHT22;6666;51.626;7.530;2022-10-03T02:28:13;8.20;99.90
13203;DHT22;6666;51.626;7.530;2022-10-03T02:30:55;8.20;99.90
13203;DHT22;6666;51.626;7.530;2022-10-03T02:34:05;8.10;99.90
13203;DHT22;6666;51.626;7.530;2022-10-03T02:46:02;8.10;99.90
13203;DHT22;6666;51.626;7.530;2022-10-03T02:51:53;8.10;99.90
13203;DHT22;6666;51.626;7.530;2022-10-03T02:58:06;8.00;99.90
13203;DHT22;6666;51.626;7.530;2022-10-03T03:01:16;8.00;99.90
13203;DHT22;6666;51.626;7.530;2022-10-03T03:04:05;8.10;99.90
13203;DHT22;6666;51.626;7.530;2022-10-03T03:06:55;8.10;99.90
13203;DHT22;6666;51.626;7.530;2022-10-03T03:09:43;8.10;99.90
13203;DHT22;6666;51.626;7.530;2022-10-03T03:12:44;8.10;99.90
13203;DHT22;6666;51.626;7.530;2022-10-03T03:15:56;8.20;99.90
13203;DHT22;6666;51.626;7.530;2022-10-03T03:18:35;8.10;99.90
13203;DHT22;6666;51.626;7.530;2022-10-03T03:21:17;8.10;99.90
13203;DHT22;6666;51.626;7.530;2022-10-03T03:24:10;8.10;99.90
13203;DHT22;6666;51.626;7.530;2022-10-03T03:29:41;8.10;99.90
13203;DHT22;6666;51.626;7.530;2022-10-03T03:32:19;8.10;99.90
13203;DHT22;6666;51.626;7.530;2022-10-03T03:35:03;8.10;99.90
13203;DHT22;6666;51.626;7.530;2022-10-03T03:37:42;8.00;99.90
13203;DHT22;6666;51.626;7.530;2022-10-03T03:40:27;8.00;99.90
13203;DHT22;6666;51.626;7.530;2022-10-03T03:43:21;8.10;99.90
13203;DHT22;6666;51.626;7.530;2022-10-03T03:46:02;8.10;99.90
13203;DHT22;6666;51.626;7.530;2022-10-03T03:48:44;8.10;99.90
13203;DHT22;6666;51.626;7.530;2022-10-03T03:51:22;8.10;99.90
13203;DHT22;6666;51.626;7.530;2022-10-03T03:54:25;8.10;99.90
13203;DHT22;6666;51.626;7.530;2022-10-03T03:57:19;8.20;99.90
13203;DHT22;6666;51.626;7.530;2022-10-03T04:00:05;8.20;99.90
13203;DHT22;6666;51.626;7.530;2022-10-03T04:02:54;8.20;99.90
13203;DHT22;6666;51.626;7.530;2022-10-03T04:05:43;8.20;99.90
13203;DHT22;6666;51.626;7.530;2022-10-03T04:08:37;8.30;99.90
13203;DHT22;6666;51.626;7.530;2022-10-03T04:11:21;8.30;99.90
13203;DHT22;6666;51.626;7.530;2022-10-03T04:14:13;8.30;99.90
13203;DHT22;6666;51.626;7.530;2022-10-03T04:16:58;8.30;99.90
13203;DHT22;6666;51.626;7.530;2022-10-03T04:20:02;8.30;99.90
13203;DHT22;6666;51.626;7.530;2022-10-03T04:22:59;8.30;99.90
13203;DHT22;6666;51.626;7.530;2022-10-03T04:25:53;8.30;99.90
13203;DHT22;6666;51.626;7.530;2022-10-03T04:28:37;8.30;99.90
13203;DHT22;6666;51.626;7.530;2022-10-03T04:31:19;8.30;99.90
13203;DHT22;6666;51.626;7.530;2022-10-03T04:34:02;8.40;99.90
13203;DHT22;6666;51.626;7.530;2022-10-03T04:36:56;8.40;99.90
13203;DHT22;6666;51.626;7.530;2022-10-03T04:39:34;8.40;99.90
13203;DHT22;6666;51.626;7.530;2022-10-03T04:42:12;8.40;99.90
13203;DHT22;6666;51.626;7.530;2022-10-03T04:44:52;8.40;99.90
13203;DHT22;6666;51.626;7.530;2022-10-03T04:47:27;8.40;99.90
13203;DHT22;6666;51.626;7.530;2022-10-03T04:50:00;8.40;99.90
13203;DHT22;6666;51.626;7.530;2022-10-03T04:52:35;8.40;99.90
13203;DHT22;6666;51.626;7.530;2022-10-03T04:55:17;8.40;99.90
13203;DHT22;6666;51.626;7.530;2022-10-03T04:57:54;8.30;99.90
13203;DHT22;6666;51.626;7.530;2022-10-03T05:00:38;8.30;99.90
13203;DHT22;6666;51.626;7.530;2022-10-03T05:03:18;8.20;99.90
13203;DHT22;6666;51.626;7.530;2022-10-03T05:05:51;8.20;99.90
13203;DHT22;6666;51.626;7.530;2022-10-03T05:08:30;8.30;99.90
13203;DHT22;6666;51.626;7.530;2022-10-03T05:11:09;8.20;99.90
13203;DHT22;6666;51.626;7.530;2022-10-03T05:13:48;8.10;99.90
13203;DHT22;6666;51.626;7.530;2022-10-03T05:16:28;8.10;99.90
13203;DHT22;6666;51.626;7.530;2022-10-03T05:19:08;8.10;99.90
13203;DHT22;6666;51.626;7.530;2022-10-03T05:21:49;8.10;99.90
13203;DHT22;6666;51.626;7.530;2022-10-03T05:24:28;8.00;99.90
13203;DHT22;6666;51.626;7.530;2022-10-03T05:27:10;8.10;99.90
13203;DHT22;6666;51.626;7.530;2022-10-03T05:29:47;8.10;99.90
13203;DHT22;6666;51.626;7.530;2022-10-03T05:32:26;8.00;99.90
13203;DHT22;6666;51.626;7.530;2022-10-03T05:35:18;7.90;99.90
13203;DHT22;6666;51.626;7.530;2022-10-03T05:38:11;8.00;99.90
13203;DHT22;6666;51.626;7.530;2022-10-03T05:40:58;7.90;99.90
13203;DHT22;6666;51.626;7.530;2022-10-03T05:43:42;7.90;99.90
13203;DHT22;6666;51.626;7.530;2022-10-03T05:46:20;7.90;99.90
13203;DHT22;6666;51.626;7.530;2022-10-03T05:48:55;7.90;99.90
13203;DHT22;6666;51.626;7.530;2022-10-03T05:51:48;7.80;99.90
13203;DHT22;6666;51.626;7.530;2022-10-03T05:54:44;7.80;99.90
13203;DHT22;6666;51.626;7.530;2022-10-03T05:57:38;7.80;99.90
13203;DHT22;6666;51.626;7.530;2022-10-03T06:00:18;7.90;99.90
13203;DHT22;6666;51.626;7.530;2022-10-03T06:06:10;7.90;99.90
13203;DHT22;6666;51.626;7.530;2022-10-03T06:09:20;7.90;99.90
13203;DHT22;6666;51.626;7.530;2022-10-03T06:11:58;7.90;99.90
13203;DHT22;6666;51.626;7.530;2022-10-03T06:17:43;8.00;99.90
13203;DHT22;6666;51.626;7.530;2022-10-03T06:23:32;8.10;99.90
13203;DHT22;6666;51.626;7.530;2022-10-03T06:26:26;8.30;99.90
13203;DHT22;6666;51.626;7.530;2022-10-03T06:36:08;8.50;99.90
13203;DHT22;6666;51.626;7.530;2022-10-03T06:42:23;8.70;99.90
13203;DHT22;6666;51.626;7.530;2022-10-03T06:45:42;8.80;99.90
13203;DHT22;6666;51.626;7.530;2022-10-03T06:48:28;8.90;99.90
13203;DHT22;6666;51.626;7.530;2022-10-03T06:51:24;9.00;99.90
13203;DHT22;6666;51.626;7.530;2022-10-03T06:54:18;9.10;99.90
13203;DHT22;6666;51.626;7.530;2022-10-03T06:57:14;9.30;99.90
13203;DHT22;6666;51.626;7.530;2022-10-03T07:00:02;9.40;99.90
13203;DHT22;6666;51.626;7.530;2022-10-03T07:02:56;9.60;99.90
13203;DHT22;6666;51.626;7.530;2022-10-03T07:05:57;9.60;99.90
13203;DHT22;6666;51.626;7.530;2022-10-03T07:08:56;9.70;99.90
13203;DHT22;6666;51.626;7.530;2022-10-03T07:11:42;9.90;99.90
13203;DHT22;6666;51.626;7.530;2022-10-03T07:17:53;10.00;99.90
13203;DHT22;6666;51.626;7.530;2022-10-03T07:20:53;10.10;99.90
13203;DHT22;6666;51.626;7.530;2022-10-03T07:23:44;10.20;99.90
13203;DHT22;6666;51.626;7.530;2022-10-03T07:26:50;10.20;99.90
13203;DHT22;6666;51.626;7.530;2022-10-03T07:29:33;10.40;99.90
13203;DHT22;6666;51.626;7.530;2022-10-03T07:39:14;10.60;99.90
13203;DHT22;6666;51.626;7.530;2022-10-03T07:42:13;10.70;99.90
13203;DHT22;6666;51.626;7.530;2022-10-03T07:45:18;10.80;99.90
13203;DHT22;6666;51.626;7.530;2022-10-03T07:48:21;10.90;99.90
13203;DHT22;6666;51.626;7.530;2022-10-03T08:00:15;11.30;99.90
13203;DHT22;6666;51.626;7.530;2022-10-03T08:06:18;11.40;99.90
13203;DHT22;6666;51.626;7.530;2022-10-03T08:15:05;11.60;99.90
13203;DHT22;6666;51.626;7.530;2022-10-03T08:20:52;11.80;99.90
13203;DHT22;6666;51.626;7.530;2022-10-03T08:24:03;11.80;99.90
13203;DHT22;6666;51.626;7.530;2022-10-03T08:29:43;12.00;99.90
13203;DHT22;6666;51.626;7.530;2022-10-03T08:32:40;12.10;99.90
13203;DHT22;6666;51.626;7.530;2022-10-03T08:35:32;12.00;99.90
13203;DHT22;6666;51.626;7.530;2022-10-03T08:47:59;12.30;99.90
13203;DHT22;6666;51.626;7.530;2022-10-03T08:50:57;12.40;99.90
13203;DHT22;6666;51.626;7.530;2022-10-03T08:53:52;12.50;99.90
13203;DHT22;6666;51.626;7.530;2022-10-03T08:56:31;12.70;99.90
13203;DHT22;6666;51.626;7.530;2022-10-03T09:11:41;12.90;99.90
13203;DHT22;6666;51.626;7.530;2022-10-03T09:14:30;12.80;99.90
13203;DHT22;6666;51.626;7.530;2022-10-03T09:17:08;13.00;99.90
13203;DHT22;6666;51.626;7.530;2022-10-03T09:20:01;13.10;99.90
13203;DHT22;6666;51.626;7.530;2022-10-03T09:22:58;13.10;99.90
13203;DHT22;6666;51.626;7.530;2022-10-03T09:25:43;13.20;99.90
13203;DHT22;6666;51.626;7.530;2022-10-03T09:28:37;13.10;99.90
13203;DHT22;6666;51.626;7.530;2022-10-03T09:31:33;13.20;99.90
13203;DHT22;6666;51.626;7.530;2022-10-03T09:34:49;13.20;99.90
13203;DHT22;6666;51.626;7.530;2022-10-03T09:38:03;13.30;99.90
13203;DHT22;6666;51.626;7.530;2022-10-03T09:41:20;13.30;99.90
13203;DHT22;6666;51.626;7.530;2022-10-03T09:44:18;13.60;99.90
13203;DHT22;6666;51.626;7.530;2022-10-03T09:47:04;13.70;99.90
13203;DHT22;6666;51.626;7.530;2022-10-03T09:50:33;13.70;99.90
13203;DHT22;6666;51.626;7.530;2022-10-03T09:53:25;13.80;99.90
13203;DHT22;6666;51.626;7.530;2022-10-03T10:05:24;13.80;99.90
13203;DHT22;6666;51.626;7.530;2022-10-03T10:11:19;14.00;99.90
13203;DHT22;6666;51.626;7.530;2022-10-03T10:17:31;14.20;99.90
13203;DHT22;6666;51.626;7.530;2022-10-03T10:20:27;14.40;99.90
13203;DHT22;6666;51.626;7.530;2022-10-03T10:23:29;14.40;99.90
13203;DHT22;6666;51.626;7.530;2022-10-03T10:29:32;14.80;99.90
13203;DHT22;6666;51.626;7.530;2022-10-03T10:42:16;15.10;99.90
13203;DHT22;6666;51.626;7.530;2022-10-03T10:51:38;15.50;99.90
13203;DHT22;6666;51.626;7.530;2022-10-03T10:54:48;15.50;99.90
13203;DHT22;6666;51.626;7.530;2022-10-03T10:57:36;15.50;99.90
13203;DHT22;6666;51.626;7.530;2022-10-03T11:00:22;15.60;99.90
13203;DHT22;6666;51.626;7.530;2022-10-03T11:03:36;15.70;99.90
13203;DHT22;6666;51.626;7.530;2022-10-03T11:06:39;15.60;99.90
13203;DHT22;6666;51.626;7.530;2022-10-03T11:09:44;15.60;99.90
13203;DHT22;6666;51.626;7.530;2022-10-03T11:12:42;15.70;99.90
13203;DHT22;6666;51.626;7.530;2022-10-03T11:18:57;15.80;99.90
13203;DHT22;6666;51.626;7.530;2022-10-03T11:22:14;15.80;99.90
13203;DHT22;6666;51.626;7.530;2022-10-03T11:37:33;15.40;99.90
13203;DHT22;6666;51.626;7.530;2022-10-03T11:40:18;15.40;99.90
13203;DHT22;6666;51.626;7.530;2022-10-03T11:42:56;15.50;99.90
13203;DHT22;6666;51.626;7.530;2022-10-03T11:45:31;15.50;99.90
13203;DHT22;6666;51.626;7.530;2022-10-03T11:48:29;15.50;99.90
13203;DHT22;6666;51.626;7.530;2022-10-03T11:51:07;15.60;99.90
13203;DHT22;6666;51.626;7.530;2022-10-03T11:53:42;15.70;99.90
13203;DHT22;6666;51.626;7.530;2022-10-03T11:56:18;15.70;99.90
13203;DHT22;6666;51.626;7.530;2022-10-03T12:01:55;15.70;99.90
13203;DHT22;6666;51.626;7.530;2022-10-03T12:04:29;15.70;99.90
13203;DHT22;6666;51.626;7.530;2022-10-03T12:07:05;15.80;99.90
13203;DHT22;6666;51.626;7.530;2022-10-03T12:09:59;15.80;99.90
13203;DHT22;6666;51.626;7.530;2022-10-03T12:12:37;15.80;99.90
13203;DHT22;6666;51.626;7.530;2022-10-03T12:15:22;15.80;99.90
13203;DHT22;6666;51.626;7.530;2022-10-03T12:18:00;15.90;99.90
13203;DHT22;6666;51.626;7.530;2022-10-03T12:20:39;15.90;99.90
13203;DHT22;6666;51.626;7.530;2022-10-03T12:23:21;16.00;99.90
13203;DHT22;6666;51.626;7.530;2022-10-03T12:25:56;16.10;99.90
13203;DHT22;6666;51.626;7.530;2022-10-03T12:28:32;16.20;99.90
13203;DHT22;6666;51.626;7.530;2022-10-03T12:31:10;16.20;99.90
13203;DHT22;6666;51.626;7.530;2022-10-03T12:33:50;16.00;99.90
13203;DHT22;6666;51.626;7.530;2022-10-03T12:36:26;16.10;99.90
13203;DHT22;6666;51.626;7.530;2022-10-03T12:39:06;16.20;99.90
13203;DHT22;6666;51.626;7.530;2022-10-03T12:41:52;16.20;99.90
13203;DHT22;6666;51.626;7.530;2022-10-03T12:44:31;16.30;99.90
13203;DHT22;6666;51.626;7.530;2022-10-03T12:47:20;16.30;99.90
13203;DHT22;6666;51.626;7.530;2022-10-03T12:50:21;16.20;99.90
13203;DHT22;6666;51.626;7.530;2022-10-03T12:53:08;16.30;99.90
13203;DHT22;6666;51.626;7.530;2022-10-03T12:55:46;16.40;99.90
13203;DHT22;6666;51.626;7.530;2022-10-03T12:58:27;16.50;99.90
13203;DHT22;6666;51.626;7.530;2022-10-03T13:01:04;16.60;99.90
13203;DHT22;6666;51.626;7.530;2022-10-03T13:03:41;16.50;99.90
13203;DHT22;6666;51.626;7.530;2022-10-03T13:06:27;16.50;99.90
13203;DHT22;6666;51.626;7.530;2022-10-03T13:09:30;16.60;99.90
13203;DHT22;6666;51.626;7.530;2022-10-03T13:12:07;16.50;99.90
13203;DHT22;6666;51.626;7.530;2022-10-03T13:17:47;16.30;99.90
13203;DHT22;6666;51.626;7.530;2022-10-03T13:20:26;16.20;99.90
13203;DHT22;6666;51.626;7.530;2022-10-03T13:23:03;16.20;99.90
13203;DHT22;6666;51.626;7.530;2022-10-03T13:25:38;16.30;99.90
13203;DHT22;6666;51.626;7.530;2022-10-03T13:28:13;16.30;99.90
13203;DHT22;6666;51.626;7.530;2022-10-03T13:30:47;16.30;99.90
13203;DHT22;6666;51.626;7.530;2022-10-03T13:33:19;16.30;99.90
13203;DHT22;6666;51.626;7.530;2022-10-03T13:35:52;16.40;99.90
13203;DHT22;6666;51.626;7.530;2022-10-03T13:38:44;16.30;99.90
13203;DHT22;6666;51.626;7.530;2022-10-03T13:41:36;16.30;99.90
13203;DHT22;6666;51.626;7.530;2022-10-03T13:44:15;16.30;99.90
13203;DHT22;6666;51.626;7.530;2022-10-03T13:46:47;16.30;99.90
13203;DHT22;6666;51.626;7.530;2022-10-03T13:49:25;16.30;99.90
13203;DHT22;6666;51.626;7.530;2022-10-03T13:52:02;16.20;99.90
13203;DHT22;6666;51.626;7.530;2022-10-03T13:54:54;16.20;99.90
13203;DHT22;6666;51.626;7.530;2022-10-03T13:57:31;16.20;99.90
13203;DHT22;6666;51.626;7.530;2022-10-03T14:00:05;16.30;99.90
13203;DHT22;6666;51.626;7.530;2022-10-03T14:02:45;16.20;99.90
13203;DHT22;6666;51.626;7.530;2022-10-03T14:05:32;16.20;99.90
13203;DHT22;6666;51.626;7.530;2022-10-03T14:08:10;16.40;99.90
13203;DHT22;6666;51.626;7.530;2022-10-03T14:10:56;16.40;99.90
13203;DHT22;6666;51.626;7.530;2022-10-03T14:13:36;16.30;99.90
13203;DHT22;6666;51.626;7.530;2022-10-03T14:16:17;16.20;99.90
13203;DHT22;6666;51.626;7.530;2022-10-03T14:18:55;16.20;99.90
13203;DHT22;6666;51.626;7.530;2022-10-03T14:21:53;16.30;99.90
13203;DHT22;6666;51.626;7.530;2022-10-03T14:24:37;16.20;99.90
13203;DHT22;6666;51.626;7.530;2022-10-03T14:27:22;16.20;99.90
13203;DHT22;6666;51.626;7.530;2022-10-03T14:30:02;16.20;99.90
13203;DHT22;6666;51.626;7.530;2022-10-03T14:32:42;16.20;99.90
13203;DHT22;6666;51.626;7.530;2022-10-03T14:35:25;16.20;99.90
13203;DHT22;6666;51.626;7.530;2022-10-03T14:38:02;16.20;99.90
13203;DHT22;6666;51.626;7.530;2022-10-03T14:40:40;16.10;99.90
13203;DHT22;6666;51.626;7.530;2022-10-03T14:43:21;16.10;99.90
13203;DHT22;6666;51.626;7.530;2022-10-03T14:45:56;16.20;99.90
13203;DHT22;6666;51.626;7.530;2022-10-03T14:48:28;16.20;99.90
13203;DHT22;6666;51.626;7.530;2022-10-03T14:51:01;16.20;99.90
13203;DHT22;6666;51.626;7.530;2022-10-03T14:53:31;16.20;99.90
13203;DHT22;6666;51.626;7.530;2022-10-03T14:56:02;16.20;99.90
13203;DHT22;6666;51.626;7.530;2022-10-03T14:58:35;16.10;99.90
13203;DHT22;6666;51.626;7.530;2022-10-03T15:01:12;16.10;99.90
13203;DHT22;6666;51.626;7.530;2022-10-03T15:03:50;16.10;99.90
13203;DHT22;6666;51.626;7.530;2022-10-03T15:06:31;16.10;99.90
13203;DHT22;6666;51.626;7.530;2022-10-03T15:09:01;16.10;99.90
13203;DHT22;6666;51.626;7.530;2022-10-03T15:11:33;16.10;99.90
13203;DHT22;6666;51.626;7.530;2022-10-03T15:14:04;16.10;99.90
13203;DHT22;6666;51.626;7.530;2022-10-03T15:16:43;16.10;99.90
13203;DHT22;6666;51.626;7.530;2022-10-03T15:19:17;16.20;99.90
13203;DHT22;6666;51.626;7.530;2022-10-03T15:21:49;16.10;99.90
13203;DHT22;6666;51.626;7.530;2022-10-03T15:24:21;16.10;99.90
13203;DHT22;6666;51.626;7.530;2022-10-03T15:26:56;16.00;99.90
13203;DHT22;6666;51.626;7.530;2022-10-03T15:29:25;16.00;99.90
13203;DHT22;6666;51.626;7.530;2022-10-03T15:31:55;16.00;99.90
13203;DHT22;6666;51.626;7.530;2022-10-03T15:34:30;16.00;99.90
13203;DHT22;6666;51.626;7.530;2022-10-03T15:37:03;15.90;99.90
13203;DHT22;6666;51.626;7.530;2022-10-03T15:39:38;15.80;99.90
13203;DHT22;6666;51.626;7.530;2022-10-03T15:42:20;15.80;99.90
13203;DHT22;6666;51.626;7.530;2022-10-03T15:44:52;15.70;99.90
13203;DHT22;6666;51.626;7.530;2022-10-03T15:47:24;15.70;99.90
13203;DHT22;6666;51.626;7.530;2022-10-03T15:49:57;15.80;99.90
13203;DHT22;6666;51.626;7.530;2022-10-03T15:52:34;15.70;99.90
13203;DHT22;6666;51.626;7.530;2022-10-03T15:55:12;15.60;99.90
13203;DHT22;6666;51.626;7.530;2022-10-03T15:57:44;15.60;99.90
13203;DHT22;6666;51.626;7.530;2022-10-03T16:00:21;15.50;99.90
13203;DHT22;6666;51.626;7.530;2022-10-03T16:02:59;15.50;99.90
13203;DHT22;6666;51.626;7.530;2022-10-03T16:05:31;15.40;99.90
13203;DHT22;6666;51.626;7.530;2022-10-03T16:08:05;15.30;99.90
13203;DHT22;6666;51.626;7.530;2022-10-03T16:10:37;15.20;99.90
13203;DHT22;6666;51.626;7.530;2022-10-03T16:13:20;15.20;99.90
13203;DHT22;6666;51.626;7.530;2022-10-03T16:16:09;15.10;99.90
13203;DHT22;6666;51.626;7.530;2022-10-03T16:18:47;15.10;99.90
13203;DHT22;6666;51.626;7.530;2022-10-03T16:21:40;15.00;99.90
13203;DHT22;6666;51.626;7.530;2022-10-03T16:27:09;14.90;99.90
13203;DHT22;6666;51.626;7.530;2022-10-03T16:29:43;14.80;99.90
13203;DHT22;6666;51.626;7.530;2022-10-03T16:32:17;14.70;99.90
13203;DHT22;6666;51.626;7.530;2022-10-03T16:34:47;14.70;99.90
13203;DHT22;6666;51.626;7.530;2022-10-03T16:37:20;14.60;99.90
13203;DHT22;6666;51.626;7.530;2022-10-03T16:39:56;14.50;99.90
13203;DHT22;6666;51.626;7.530;2022-10-03T16:42:28;14.40;99.90
13203;DHT22;6666;51.626;7.530;2022-10-03T16:45:16;14.30;99.90
13203;DHT22;6666;51.626;7.530;2022-10-03T16:47:46;14.20;99.90
13203;DHT22;6666;51.626;7.530;2022-10-03T16:50:41;14.20;99.90
13203;DHT22;6666;51.626;7.530;2022-10-03T16:53:11;14.10;99.90
13203;DHT22;6666;51.626;7.530;2022-10-03T16:55:44;14.00;99.90
13203;DHT22;6666;51.626;7.530;2022-10-03T16:58:18;13.90;99.90
13203;DHT22;6666;51.626;7.530;2022-10-03T17:00:53;13.80;99.90
13203;DHT22;6666;51.626;7.530;2022-10-03T17:03:45;13.70;99.90
13203;DHT22;6666;51.626;7.530;2022-10-03T17:06:19;13.60;99.90
13203;DHT22;6666;51.626;7.530;2022-10-03T17:08:51;13.60;99.90
13203;DHT22;6666;51.626;7.530;2022-10-03T17:11:21;13.60;99.90
13203;DHT22;6666;51.626;7.530;2022-10-03T17:13:53;13.60;99.90
13203;DHT22;6666;51.626;7.530;2022-10-03T17:16:29;13.60;99.90
13203;DHT22;6666;51.626;7.530;2022-10-03T17:19:12;13.50;99.90
13203;DHT22;6666;51.626;7.530;2022-10-03T17:21:45;13.50;99.90
13203;DHT22;6666;51.626;7.530;2022-10-03T17:24:31;13.40;99.90
13203;DHT22;6666;51.626;7.530;2022-10-03T17:27:03;13.50;99.90
13203;DHT22;6666;51.626;7.530;2022-10-03T17:29:36;13.40;99.90
13203;DHT22;6666;51.626;7.530;2022-10-03T17:32:16;13.30;99.90
13203;DHT22;6666;51.626;7.530;2022-10-03T17:34:51;13.30;99.90
13203;DHT22;6666;51.626;7.530;2022-10-03T17:37:50;13.20;99.90
13203;DHT22;6666;51.626;7.530;2022-10-03T17:40:38;13.10;99.90
13203;DHT22;6666;51.626;7.530;2022-10-03T17:43:20;13.10;99.90
13203;DHT22;6666;51.626;7.530;2022-10-03T17:46:00;12.90;99.90
13203;DHT22;6666;51.626;7.530;2022-10-03T17:48:36;12.80;99.90
13203;DHT22;6666;51.626;7.530;2022-10-03T17:51:33;12.80;99.90
13203;DHT22;6666;51.626;7.530;2022-10-03T17:54:08;12.60;99.90
13203;DHT22;6666;51.626;7.530;2022-10-03T17:56:43;12.70;99.90
13203;DHT22;6666;51.626;7.530;2022-10-03T17:59:14;12.60;99.90
13203;DHT22;6666;51.626;7.530;2022-10-03T18:01:50;12.50;99.90
13203;DHT22;6666;51.626;7.530;2022-10-03T18:04:28;12.50;99.90
13203;DHT22;6666;51.626;7.530;2022-10-03T18:07:02;12.40;99.90
13203;DHT22;6666;51.626;7.530;2022-10-03T18:09:34;12.40;99.90
13203;DHT22;6666;51.626;7.530;2022-10-03T18:12:18;12.40;99.90
13203;DHT22;6666;51.626;7.530;2022-10-03T18:15:23;12.30;99.90
13203;DHT22;6666;51.626;7.530;2022-10-03T18:18:06;12.30;99.90
13203;DHT22;6666;51.626;7.530;2022-10-03T18:20:43;12.20;99.90
13203;DHT22;6666;51.626;7.530;2022-10-03T18:23:20;12.20;99.90
13203;DHT22;6666;51.626;7.530;2022-10-03T18:26:19;12.10;99.90
13203;DHT22;6666;51.626;7.530;2022-10-03T18:28:59;12.10;99.90
13203;DHT22;6666;51.626;7.530;2022-10-03T18:31:31;12.00;99.90
13203;DHT22;6666;51.626;7.530;2022-10-03T18:34:06;12.00;99.90
13203;DHT22;6666;51.626;7.530;2022-10-03T18:36:43;12.00;99.90
13203;DHT22;6666;51.626;7.530;2022-10-03T18:39:15;11.90;99.90
13203;DHT22;6666;51.626;7.530;2022-10-03T18:41:47;11.90;99.90
13203;DHT22;6666;51.626;7.530;2022-10-03T18:44:18;11.90;99.90
13203;DHT22;6666;51.626;7.530;2022-10-03T18:46:49;11.80;99.90
13203;DHT22;6666;51.626;7.530;2022-10-03T18:49:22;11.80;99.90
13203;DHT22;6666;51.626;7.530;2022-10-03T18:52:05;11.70;99.90
13203;DHT22;6666;51.626;7.530;2022-10-03T18:54:43;11.70;99.90
13203;DHT22;6666;51.626;7.530;2022-10-03T18:57:19;11.70;99.90
13203;DHT22;6666;51.626;7.530;2022-10-03T18:59:54;11.60;99.90
13203;DHT22;6666;51.626;7.530;2022-10-03T19:02:28;11.50;99.90
13203;DHT22;6666;51.626;7.530;2022-10-03T19:05:06;11.50;99.90
13203;DHT22;6666;51.626;7.530;2022-10-03T19:07:42;11.40;99.90
13203;DHT22;6666;51.626;7.530;2022-10-03T19:10:33;11.40;99.90
13203;DHT22;6666;51.626;7.530;2022-10-03T19:13:14;11.40;99.90
13203;DHT22;6666;51.626;7.530;2022-10-03T19:16:00;11.40;99.90
13203;DHT22;6666;51.626;7.530;2022-10-03T19:18:40;11.30;99.90
13203;DHT22;6666;51.626;7.530;2022-10-03T19:21:13;11.30;99.90
13203;DHT22;6666;51.626;7.530;2022-10-03T19:23:46;11.20;99.90
13203;DHT22;6666;51.626;7.530;2022-10-03T19:26:22;11.20;99.90
13203;DHT22;6666;51.626;7.530;2022-10-03T19:28:53;11.20;99.90
13203;DHT22;6666;51.626;7.530;2022-10-03T19:31:26;11.10;99.90
13203;DHT22;6666;51.626;7.530;2022-10-03T19:33:59;11.10;99.90
13203;DHT22;6666;51.626;7.530;2022-10-03T19:36:30;11.10;99.90
13203;DHT22;6666;51.626;7.530;2022-10-03T19:39:03;11.10;99.90
13203;DHT22;6666;51.626;7.530;2022-10-03T19:41:34;11.10;99.90
13203;DHT22;6666;51.626;7.530;2022-10-03T19:44:06;11.10;99.90
13203;DHT22;6666;51.626;7.530;2022-10-03T19:46:47;11.10;99.90
13203;DHT22;6666;51.626;7.530;2022-10-03T19:49:28;11.10;99.90
13203;DHT22;6666;51.626;7.530;2022-10-03T19:52:20;11.00;99.90
13203;DHT22;6666;51.626;7.530;2022-10-03T19:54:53;11.00;99.90
13203;DHT22;6666;51.626;7.530;2022-10-03T19:57:29;11.10;99.90
13203;DHT22;6666;51.626;7.530;2022-10-03T20:00:02;11.00;99.90
13203;DHT22;6666;51.626;7.530;2022-10-03T20:02:41;11.00;99.90
13203;DHT22;6666;51.626;7.530;2022-10-03T20:05:16;10.90;99.90
13203;DHT22;6666;51.626;7.530;2022-10-03T20:07:48;10.90;99.90
13203;DHT22;6666;51.626;7.530;2022-10-03T20:10:38;11.00;99.90
13203;DHT22;6666;51.626;7.530;2022-10-03T20:13:10;10.90;99.90
13203;DHT22;6666;51.626;7.530;2022-10-03T20:15:41;10.90;99.90
13203;DHT22;6666;51.626;7.530;2022-10-03T20:18:18;10.90;99.90